createdAt,value
2018-11-03T20:21:08.366Z,12.07
2018-11-03T20:24:45.356Z,11.30
2018-11-03T20:29:54.685Z,8.73
2018-11-03T20:32:25.317Z,11.23
2018-11-03T20:34:56.274Z,9.30
2018-11-03T20:37:27.121Z,9.83
2018-11-03T20:39:57.684Z,10.07
2018-11-03T20:42:50.444Z,10.90
2018-11-03T20:45:30.194Z,10.63
2018-11-03T20:48:11.413Z,11.77
2018-11-03T20:50:45.726Z,9.93
2018-11-03T20:53:17.679Z,11.40
2018-11-03T20:56:00.137Z,9.30
2018-11-03T20:58:32.719Z,11.43
2018-11-03T21:01:05.783Z,8.10
2018-11-03T21:03:36.463Z,12.40
2018-11-03T21:06:07.418Z,11.73
2018-11-03T21:08:38.108Z,9.33
2018-11-03T21:11:09.088Z,9.43
2018-11-03T21:13:39.750Z,11.07
2018-11-03T21:16:10.697Z,9.77
2018-11-03T21:18:42.436Z,9.53
2018-11-03T21:21:12.907Z,8.63
2018-11-03T21:23:44.780Z,9.93
2018-11-03T21:26:15.472Z,7.93
2018-11-03T21:28:46.364Z,7.97
2018-11-03T21:31:17.119Z,8.00
2018-11-03T21:33:47.790Z,7.67
2018-11-03T21:36:18.610Z,9.80
2018-11-03T21:38:49.516Z,8.23
2018-11-03T21:41:20.343Z,7.50
2018-11-03T21:43:51.172Z,7.60
2018-11-03T21:46:22.297Z,7.23
2018-11-03T21:48:53.364Z,7.80
2018-11-03T21:51:24.468Z,9.00
2018-11-03T21:53:55.185Z,7.77
2018-11-03T21:56:26.013Z,8.17
2018-11-03T21:58:57.116Z,7.23
2018-11-03T22:01:27.837Z,7.17
2018-11-03T22:03:58.681Z,7.03
2018-11-03T22:06:29.647Z,8.47
2018-11-03T22:09:00.443Z,7.00
2018-11-03T22:11:31.136Z,7.87
2018-11-03T22:14:02.152Z,8.00
2018-11-03T22:16:33.272Z,6.07
2018-11-03T22:19:05.343Z,7.07
2018-11-03T22:21:36.352Z,6.90
2018-11-03T22:24:08.622Z,5.87
2018-11-03T22:26:39.673Z,7.30
2018-11-03T22:29:10.317Z,6.90
2018-11-03T22:31:42.497Z,6.90
2018-11-03T22:34:22.676Z,6.80
2018-11-03T22:36:55.319Z,6.07
2018-11-03T22:39:26.270Z,6.27
2018-11-03T22:41:56.860Z,6.57
2018-11-03T22:44:27.828Z,7.50
2018-11-03T22:46:58.663Z,5.13
2018-11-03T22:49:29.167Z,5.47
2018-11-03T22:52:00.425Z,7.03
2018-11-03T22:54:31.379Z,4.93
2018-11-03T22:57:02.569Z,6.40
2018-11-03T22:59:33.894Z,6.83
2018-11-03T23:02:06.226Z,5.73
2018-11-03T23:04:36.697Z,6.37
2018-11-03T23:07:07.822Z,5.63
2018-11-03T23:09:38.895Z,5.93
2018-11-03T23:12:09.676Z,6.53
2018-11-03T23:14:40.643Z,6.00
2018-11-03T23:17:11.325Z,6.23
2018-11-03T23:19:42.354Z,6.03
2018-11-03T23:22:12.962Z,7.10
2018-11-03T23:24:43.702Z,6.23
2018-11-03T23:27:14.516Z,5.37
2018-11-03T23:29:45.591Z,5.73
2018-11-03T23:32:16.175Z,5.30
2018-11-03T23:34:47.041Z,5.57
2018-11-03T23:37:17.892Z,5.03
2018-11-03T23:39:49.011Z,5.63
2018-11-03T23:42:19.619Z,5.40
2018-11-03T23:44:50.409Z,6.27
2018-11-03T23:47:21.840Z,10.57
2018-11-03T23:49:52.977Z,6.37
2018-11-03T23:55:05.001Z,5.73
2018-11-03T23:57:35.926Z,5.00
